Time;durP1;ratioP1;P1;durP2;ratioP2;P2;SDS_P1;SDS_P2;PMS_P1;PMS_P2;Temp;Humidity;BMP_temperature;BMP_pressure;BME280_temperature;BME280_humidity;BME280_pressure;Samples;Min_cycle;Max_cycle;Signal;HPM_P1;HPM_P2
2023/06/29 00:02:24;;;;;;;13.98;9.55;;;358.50;2329.60;;;;;;5048823;28;20029;-62
2023/06/29 00:04:52;;;;;;;14.05;8.00;;;358.50;2329.60;;;;;;5049380;28;20114;-62
2023/06/29 00:07:17;;;;;;;13.30;9.15;;;358.50;2329.60;;;;;;5035334;28;20043;-62
2023/06/29 00:09:43;;;;;;;9.85;7.63;;;358.50;2329.60;;;;;;5049344;28;20036;-68
2023/06/29 00:12:09;;;;;;;9.68;7.57;;;358.50;2329.60;;;;;;5049304;28;20021;-61
2023/06/29 00:14:35;;;;;;;9.88;7.22;;;358.50;2329.60;;;;;;5036451;28;20549;-62
2023/06/29 00:17:00;;;;;;;7.82;6.47;;;358.50;2329.60;;;;;;5048446;28;20029;-62
2023/06/29 00:19:26;;;;;;;10.27;7.32;;;358.50;2329.60;;;;;;5048994;28;20017;-62
2023/06/29 00:21:52;;;;;;;10.20;6.85;;;358.50;2329.60;;;;;;5048777;28;20434;-62
2023/06/29 00:24:18;;;;;;;9.38;6.45;;;358.50;2329.60;;;;;;5048510;28;20428;-62
2023/06/29 00:26:43;;;;;;;10.68;7.88;;;358.50;2329.60;;;;;;5048668;28;20072;-62
2023/06/29 00:29:09;;;;;;;8.98;6.57;;;358.50;2329.60;;;;;;5049278;28;20032;-62
2023/06/29 00:31:35;;;;;;;10.88;7.75;;;358.40;2329.60;;;;;;5048486;28;20021;-66
2023/06/29 00:34:01;;;;;;;11.77;7.22;;;333.70;2329.60;;;;;;5048799;28;20032;-62
2023/06/29 00:36:26;;;;;;;10.70;6.75;;;333.70;2329.60;;;;;;5048670;28;20032;-62
2023/06/29 00:38:52;;;;;;;11.32;7.20;;;333.70;2329.60;;;;;;5048430;28;20131;-62
2023/06/29 00:41:18;;;;;;;9.32;6.75;;;333.70;2329.60;;;;;;5048751;28;20025;-62
2023/06/29 00:43:45;;;;;;;12.43;7.88;;;333.70;2329.60;;;;;;5048530;28;20386;-61
2023/06/29 00:46:15;;;;;;;13.30;8.07;;;333.70;2329.60;;;;;;5049033;28;20055;-60
2023/06/29 00:48:41;;;;;;;11.45;6.72;;;333.70;2329.60;;;;;;5048688;28;20139;-61
2023/06/29 00:51:07;;;;;;;9.80;7.28;;;333.60;2329.60;;;;;;5048867;28;20096;-65
2023/06/29 00:53:33;;;;;;;9.27;6.88;;;333.50;2329.60;;;;;;5048050;28;20033;-62
2023/06/29 00:56:01;;;;;;;12.32;7.82;;;333.50;2329.60;;;;;;5048806;28;20021;-62
2023/06/29 00:58:26;;;;;;;17.02;7.30;;;333.40;2329.60;;;;;;5048330;28;20476;-64
2023/06/29 01:00:52;;;;;;;9.27;6.25;;;333.40;2329.60;;;;;;5048324;28;20032;-62
2023/06/29 01:03:18;;;;;;;7.63;5.53;;;333.40;2329.60;;;;;;5048836;28;20039;-62
2023/06/29 01:05:45;;;;;;;9.77;6.85;;;333.50;2329.60;;;;;;5048624;28;20021;-62
2023/06/29 01:08:19;;;;;;;7.63;5.88;;;333.50;2329.60;;;;;;5047952;28;20483;-61
2023/06/29 01:10:47;;;;;;;9.77;5.82;;;333.50;2329.60;;;;;;5023897;28;20176;-61
2023/06/29 01:13:17;;;;;;;8.13;6.82;;;333.50;2329.60;;;;;;5048119;28;20090;-61
2023/06/29 01:15:44;;;;;;;10.40;6.85;;;333.50;2329.60;;;;;;5052129;28;20020;-62
2023/06/29 01:18:12;;;;;;;8.65;5.72;;;333.40;2329.60;;;;;;5052530;28;20391;-66
2023/06/29 01:20:39;;;;;;;13.05;7.55;;;333.40;2329.60;;;;;;5052463;28;20455;-62
2023/06/29 01:23:10;;;;;;;12.10;7.18;;;333.40;2329.60;;;;;;5051146;28;20021;-61
2023/06/29 01:25:37;;;;;;;7.60;6.35;;;333.40;2329.60;;;;;;5051655;28;20052;-62
2023/06/29 01:28:09;;;;;;;7.43;6.43;;;333.30;2329.60;;;;;;5051626;28;20119;-62
2023/06/29 01:30:49;;;;;;;8.20;5.88;;;333.30;2329.60;;;;;;5051825;28;20479;-62
2023/06/29 01:33:17;;;;;;;9.95;6.25;;;333.30;2329.60;;;;;;5051978;28;20025;-62
2023/06/29 01:35:44;;;;;;;18.92;5.72;;;333.30;2329.60;;;;;;5051254;28;20065;-64
2023/06/29 01:38:20;;;;;;;10.60;6.32;;;333.30;2329.60;;;;;;5034018;28;20052;-61
2023/06/29 01:40:48;;;;;;;11.45;5.88;;;333.40;2329.60;;;;;;5051898;28;20107;-62
2023/06/29 01:43:16;;;;;;;8.95;6.55;;;333.50;2329.60;;;;;;5051448;28;20383;-62
2023/06/29 01:45:43;;;;;;;7.53;5.82;;;333.40;2329.60;;;;;;5039322;28;20018;-62
2023/06/29 01:48:09;;;;;;;10.85;6.53;;;333.40;2329.60;;;;;;5050646;28;20029;-62
2023/06/29 01:50:35;;;;;;;8.80;6.85;;;333.30;2329.60;;;;;;5051388;28;20532;-62
2023/06/29 01:53:01;;;;;;;8.50;6.43;;;333.30;2329.60;;;;;;5050869;28;20116;-62
2023/06/29 01:55:27;;;;;;;10.00;6.55;;;333.30;2329.60;;;;;;5051357;28;20025;-62
2023/06/29 01:57:52;;;;;;;12.45;6.70;;;333.30;2329.60;;;;;;5051306;28;20395;-62
2023/06/29 02:00:18;;;;;;;10.27;6.65;;;333.30;2329.60;;;;;;5051441;28;20481;-62
2023/06/29 02:02:44;;;;;;;9.48;5.70;;;333.30;2329.60;;;;;;5051166;28;20029;-62
2023/06/29 02:05:09;;;;;;;7.40;5.22;;;333.30;2329.60;;;;;;5050547;28;20031;-62
2023/06/29 02:07:35;;;;;;;9.57;6.45;;;333.20;2329.60;;;;;;5050696;28;20033;-62
2023/06/29 02:10:01;;;;;;;6.53;5.38;;;333.30;2329.60;;;;;;5050644;28;20147;-62
2023/06/29 02:12:26;;;;;;;8.38;5.35;;;333.30;2329.60;;;;;;5051455;28;20017;-61
2023/06/29 02:14:52;;;;;;;8.93;6.35;;;333.30;2329.60;;;;;;5050680;28;20491;-62
2023/06/29 02:17:18;;;;;;;6.95;4.90;;;333.30;2329.60;;;;;;5051076;28;20079;-62
2023/06/29 02:19:44;;;;;;;7.70;5.82;;;333.30;2329.60;;;;;;5050728;28;20032;-62
2023/06/29 02:22:09;;;;;;;8.98;6.03;;;333.30;2329.60;;;;;;5050699;28;20103;-61
2023/06/29 02:24:35;;;;;;;9.38;5.68;;;333.30;2329.60;;;;;;5050304;28;20386;-62
2023/06/29 02:27:01;;;;;;;11.65;5.88;;;333.30;2329.60;;;;;;5049778;28;20550;-68
2023/06/29 02:29:27;;;;;;;8.05;5.97;;;333.30;2329.60;;;;;;5050546;28;20070;-60
2023/06/29 02:31:52;;;;;;;9.13;5.40;;;333.30;2329.60;;;;;;5042690;28;20083;-62
2023/06/29 02:34:18;;;;;;;7.13;5.28;;;333.30;2329.60;;;;;;5046064;28;20025;-62
2023/06/29 02:36:44;;;;;;;7.75;5.47;;;333.10;2329.60;;;;;;5050394;28;20035;-66
2023/06/29 02:39:09;;;;;;;6.47;5.60;;;333.20;2329.60;;;;;;5048316;28;20053;-61
2023/06/29 02:41:35;;;;;;;8.85;5.35;;;333.20;2329.60;;;;;;5038995;28;20095;-61
2023/06/29 02:44:01;;;;;;;8.68;5.85;;;333.20;2329.60;;;;;;5050003;28;20028;-61
2023/06/29 02:46:26;;;;;;;8.13;4.65;;;333.10;2329.60;;;;;;5050212;28;20495;-61
2023/06/29 02:48:52;;;;;;;8.55;5.75;;;333.10;2329.60;;;;;;5038655;28;20048;-62
2023/06/29 02:51:19;;;;;;;6.60;5.00;;;333.20;2329.60;;;;;;5050303;28;20049;-66
2023/06/29 02:53:44;;;;;;;12.50;5.35;;;333.10;2329.60;;;;;;5050126;28;20025;-62
2023/06/29 02:56:10;;;;;;;10.02;5.55;;;333.10;2329.60;;;;;;5050329;28;20530;-61
2023/06/29 02:58:36;;;;;;;8.65;5.50;;;333.10;2329.60;;;;;;5049873;28;20545;-62
2023/06/29 03:01:01;;;;;;;8.45;6.15;;;333.10;2329.60;;;;;;5049907;28;20033;-62
2023/06/29 03:03:27;;;;;;;7.20;4.93;;;333.10;2329.60;;;;;;5049895;28;20032;-62
2023/06/29 03:05:53;;;;;;;7.55;5.45;;;333.10;2329.60;;;;;;5050115;28;20036;-62
2023/06/29 03:08:18;;;;;;;12.93;5.95;;;333.10;2329.60;;;;;;5049428;28;20041;-62
2023/06/29 03:10:44;;;;;;;8.13;5.63;;;333.10;2329.60;;;;;;5050094;28;20029;-62
2023/06/29 03:13:10;;;;;;;10.60;5.97;;;333.10;2329.60;;;;;;5050196;28;20029;-62
2023/06/29 03:15:35;;;;;;;6.43;5.15;;;333.10;2329.60;;;;;;5049824;28;20025;-62
2023/06/29 03:18:01;;;;;;;6.95;5.68;;;333.20;2329.60;;;;;;5049699;28;20483;-64
2023/06/29 03:20:27;;;;;;;6.90;5.72;;;333.20;2329.60;;;;;;5050007;28;20143;-62
2023/06/29 03:22:53;;;;;;;7.90;4.95;;;333.30;2329.60;;;;;;5048653;28;20017;-63
2023/06/29 03:25:18;;;;;;;10.85;4.80;;;333.30;2329.60;;;;;;5049703;28;20104;-62
2023/06/29 03:27:44;;;;;;;6.05;4.60;;;333.40;2329.60;;;;;;5049565;28;20462;-67
2023/06/29 03:30:10;;;;;;;8.82;5.22;;;333.50;2329.60;;;;;;5049150;28;20075;-62
2023/06/29 03:32:36;;;;;;;9.50;4.90;;;333.50;2329.60;;;;;;5049399;28;20087;-62
2023/06/29 03:35:01;;;;;;;7.68;4.35;;;333.60;2329.60;;;;;;5049376;28;20056;-62
2023/06/29 03:37:27;;;;;;;7.07;4.82;;;333.70;2329.60;;;;;;5048910;28;20045;-60
2023/06/29 03:39:53;;;;;;;9.82;4.68;;;333.70;2329.60;;;;;;5049029;28;20033;-62
2023/06/29 03:42:19;;;;;;;8.57;5.50;;;333.70;2329.60;;;;;;5049557;28;20032;-61
2023/06/29 03:44:44;;;;;;;13.95;6.25;;;333.70;2329.60;;;;;;5049047;28;20052;-62
2023/06/29 03:47:10;;;;;;;6.38;4.90;;;358.40;2329.60;;;;;;5049454;28;20033;-68
2023/06/29 03:49:36;;;;;;;7.55;4.32;;;358.50;2329.60;;;;;;5049211;28;20017;-62
2023/06/29 03:52:01;;;;;;;9.57;4.78;;;358.60;2329.60;;;;;;5049215;28;20032;-62
2023/06/29 03:54:27;;;;;;;7.55;4.18;;;358.70;2329.60;;;;;;5048761;28;20021;-62
2023/06/29 03:56:54;;;;;;;6.38;4.60;;;358.80;2329.60;;;;;;5048944;28;20029;-62
2023/06/29 03:59:20;;;;;;;6.22;3.63;;;358.80;2329.60;;;;;;5049701;28;20083;-62
2023/06/29 04:01:46;;;;;;;8.70;5.60;;;358.80;2329.60;;;;;;5048913;28;20036;-62
2023/06/29 04:04:12;;;;;;;7.05;4.00;;;359.00;2329.60;;;;;;5041995;28;20578;-62
2023/06/29 04:06:37;;;;;;;5.93;4.28;;;359.00;2329.60;;;;;;5042804;28;20029;-61
2023/06/29 04:09:03;;;;;;;6.80;4.20;;;359.00;2329.60;;;;;;5048833;28;20040;-62
2023/06/29 04:11:29;;;;;;;8.13;3.70;;;359.10;2329.60;;;;;;5048604;28;20036;-60
2023/06/29 04:13:55;;;;;;;6.90;4.45;;;359.30;2329.60;;;;;;5041770;28;20026;-61
2023/06/29 04:16:20;;;;;;;7.47;4.72;;;384.00;2329.60;;;;;;5042879;28;20029;-62
2023/06/29 04:18:46;;;;;;;7.53;4.13;;;359.30;2329.60;;;;;;5048912;28;20494;-62
2023/06/29 04:21:12;;;;;;;6.65;4.32;;;384.30;2329.60;;;;;;5049055;28;20017;-62
2023/06/29 04:23:37;;;;;;;9.82;4.18;;;384.30;2329.60;;;;;;5048601;28;20368;-62
2023/06/29 04:26:03;;;;;;;6.22;3.90;;;384.40;2329.60;;;;;;5048357;28;20029;-62
2023/06/29 04:28:35;;;;;;;7.78;4.47;;;384.50;2329.60;;;;;;5049113;28;20029;-63
2023/06/29 04:31:02;;;;;;;6.87;4.17;;;384.60;2329.60;;;;;;5036196;28;20041;-61
2023/06/29 04:33:27;;;;;;;5.03;4.18;;;384.90;2329.60;;;;;;5048834;28;20032;-61
2023/06/29 04:35:53;;;;;;;10.25;4.10;;;486.40;2380.80;;;;;;5048655;28;20463;-61
2023/06/29 04:38:22;;;;;;;8.25;4.93;;;588.80;2432.00;;;;;;5048385;28;20084;-62
2023/06/29 04:40:48;;;;;;;6.28;4.30;;;640.60;2073.60;;;;;;5048708;28;20044;-61
2023/06/29 04:43:14;;;;;;;5.32;4.18;;;691.80;1868.80;;;;;;5048658;28;20033;-61
2023/06/29 04:45:40;;;;;;;4.38;3.95;;;717.70;1766.40;;;;;;5042064;28;20025;-62
2023/06/29 04:48:06;;;;;;;7.15;5.18;;;768.30;1689.60;;;;;;5039358;28;20108;-61
2023/06/29 04:50:35;;;;;;;6.55;4.10;;;794.10;1612.80;;;;;;5051654;28;20108;-62
2023/06/29 04:53:11;;;;;;;9.52;4.88;;;819.30;1536.00;;;;;;5051838;28;20044;-63
2023/06/29 04:55:40;;;;;;;8.25;6.13;;;819.90;1484.80;;;;;;5038855;28;20503;-61
2023/06/29 04:58:05;;;;;;;6.97;4.68;;;845.70;1459.20;;;;;;5050538;28;20072;-61
2023/06/29 05:00:32;;;;;;;6.78;5.00;;;870.40;1433.60;;;;;;5051550;28;20033;-62
2023/06/29 05:02:59;;;;;;;8.98;5.25;;;871.10;1382.40;;;;;;5051267;28;20173;-67
2023/06/29 05:05:25;;;;;;;9.30;5.55;;;870.90;1382.40;;;;;;5052037;28;20083;-64
2023/06/29 05:07:51;;;;;;;5.55;4.95;;;871.20;1356.80;;;;;;5051931;28;20033;-60
2023/06/29 05:10:17;;;;;;;10.57;5.47;;;896.40;1356.80;;;;;;5044263;28;20041;-62
2023/06/29 05:12:42;;;;;;;5.72;5.20;;;921.80;1305.60;;;;;;5043993;28;20029;-61
2023/06/29 05:15:08;;;;;;;8.27;5.63;;;922.00;1331.20;;;;;;5052133;28;20013;-60
2023/06/29 05:17:34;;;;;;;6.40;5.53;;;947.60;1280.00;;;;;;5052143;28;20064;-68
2023/06/29 05:20:00;;;;;;;6.55;5.95;;;948.10;1254.40;;;;;;5052444;28;20052;-62
2023/06/29 05:22:25;;;;;;;7.03;5.75;;;973.60;1228.80;;;;;;5051833;28;20486;-62
2023/06/29 05:24:51;;;;;;;6.80;6.10;;;998.70;1228.80;;;;;;5051378;28;20048;-61
2023/06/29 05:27:17;;;;;;;6.15;5.47;;;999.00;1177.60;;;;;;5045587;28;20047;-58
2023/06/29 05:29:43;;;;;;;6.47;5.80;;;999.30;1177.60;;;;;;5051377;28;20417;-65
2023/06/29 05:32:09;;;;;;;6.22;5.63;;;1024.60;1152.00;;;;;;5050992;28;20514;-60
2023/06/29 05:34:35;;;;;;;6.38;5.78;;;;;;;;;;5051357;28;20032;-63
2023/06/29 05:37:01;;;;;;;7.32;6.47;;;1024.90;1126.40;;;;;;5050490;28;20024;-63
2023/06/29 05:39:27;;;;;;;7.40;5.93;;;1050.20;1126.40;;;;;;5051838;28;20104;-62
2023/06/29 05:41:53;;;;;;;6.85;6.05;;;1075.40;1075.20;;;;;;5051157;28;20132;-68
2023/06/29 05:44:18;;;;;;;7.30;6.70;;;1076.10;1075.20;;;;;;5048912;28;20033;-61
2023/06/29 05:46:44;;;;;;;7.30;6.60;;;1101.00;1075.20;;;;;;5045665;28;20084;-62
2023/06/29 05:49:10;;;;;;;7.82;7.22;;;1101.20;1049.60;;;;;;5045198;28;20041;-62
2023/06/29 05:51:37;;;;;;;7.32;6.57;;;1101.70;1049.60;;;;;;5051928;28;20422;-61
2023/06/29 05:54:04;;;;;;;7.18;6.55;;;1126.40;1075.20;;;;;;5051129;28;20017;-63
2023/06/29 05:56:31;;;;;;;7.90;7.30;;;1126.90;1024.00;;;;;;5051281;28;20029;-61
2023/06/29 05:58:56;;;;;;;7.72;6.95;;;1127.10;1024.00;;;;;;5051710;28;20021;-61
2023/06/29 06:01:22;;;;;;;8.00;7.25;;;1152.20;1024.00;;;;;;5051313;28;20075;-61
2023/06/29 06:03:48;;;;;;;7.78;7.07;;;1152.10;1024.00;;;;;;5051482;28;20021;-60
2023/06/29 06:06:14;;;;;;;8.82;8.00;;;1177.70;998.40;;;;;;5051207;28;20466;-60
2023/06/29 06:08:39;;;;;;;8.85;7.97;;;1177.70;998.40;;;;;;5050960;28;20036;-61
2023/06/29 06:11:05;;;;;;;8.20;7.10;;;1152.70;998.40;;;;;;5051134;28;20040;-62
2023/06/29 06:13:31;;;;;;;8.38;7.70;;;1178.00;972.80;;;;;;5051245;28;20078;-62
2023/06/29 06:15:57;;;;;;;7.78;7.07;;;1177.80;998.40;;;;;;5051232;28;20029;-62
2023/06/29 06:18:22;;;;;;;8.68;7.88;;;1177.80;998.40;;;;;;5051047;28;20032;-62
2023/06/29 06:20:48;;;;;;;8.68;8.05;;;1178.10;972.80;;;;;;5051208;28;20032;-62
2023/06/29 06:23:14;;;;;;;9.10;8.32;;;1178.30;972.80;;;;;;5050147;28;20040;-60
2023/06/29 06:25:40;;;;;;;9.07;8.30;;;1203.60;972.80;;;;;;5050290;28;20031;-61
2023/06/29 06:28:05;;;;;;;7.80;7.00;;;1203.70;947.20;;;;;;5051179;28;20048;-69
2023/06/29 06:30:31;;;;;;;8.23;7.53;;;1203.80;947.20;;;;;;5050840;28;20021;-62
2023/06/29 06:33:01;;;;;;;10.68;7.95;;;1203.70;972.80;;;;;;5040001;28;20468;-61
2023/06/29 06:35:28;;;;;;;8.35;7.65;;;1178.00;947.20;;;;;;5048832;28;20021;-62
2023/06/29 06:37:53;;;;;;;8.05;7.43;;;1203.60;947.20;;;;;;5050363;28;20059;-62
2023/06/29 06:40:19;;;;;;;8.75;8.15;;;1204.10;947.20;;;;;;5050828;28;20029;-61
2023/06/29 06:42:45;;;;;;;8.93;8.23;;;1229.70;921.60;;;;;;5050622;28;20029;-62
2023/06/29 06:45:11;;;;;;;8.00;7.50;;;1203.90;947.20;;;;;;5050778;28;20017;-70
2023/06/29 06:47:36;;;;;;;8.80;8.20;;;1204.10;921.60;;;;;;5050710;28;20069;-61
2023/06/29 06:50:03;;;;;;;9.15;8.35;;;1229.30;921.60;;;;;;5050003;28;20013;-62
2023/06/29 06:52:29;;;;;;;9.30;8.63;;;1204.10;947.20;;;;;;5050502;28;20021;-68
2023/06/29 06:54:58;;;;;;;8.93;8.23;;;1229.20;921.60;;;;;;5049729;28;20542;-62
2023/06/29 06:57:25;;;;;;;9.25;8.57;;;1229.30;921.60;;;;;;5050155;28;20052;-62
2023/06/29 06:59:50;;;;;;;8.50;7.90;;;1254.80;896.00;;;;;;5049833;28;20025;-61
2023/06/29 07:02:16;;;;;;;9.00;8.05;;;1254.90;896.00;;;;;;5049570;28;20085;-61
2023/06/29 07:04:42;;;;;;;9.82;9.07;;;1254.90;921.60;;;;;;5048925;28;20079;-59
2023/06/29 07:07:08;;;;;;;8.82;8.07;;;1255.30;896.00;;;;;;5050128;28;20199;-62
2023/06/29 07:09:34;;;;;;;8.18;7.57;;;1255.30;896.00;;;;;;5048979;28;20078;-62
2023/06/29 07:11:59;;;;;;;8.75;8.10;;;1280.00;870.40;;;;;;5049332;28;20071;-62
2023/06/29 07:14:25;;;;;;;8.85;8.00;;;1254.90;896.00;;;;;;5049622;28;20071;-61
2023/06/29 07:16:51;;;;;;;8.48;7.97;;;1229.70;870.40;;;;;;5050451;28;20544;-61
2023/06/29 07:19:17;;;;;;;7.47;6.97;;;1254.60;870.40;;;;;;5049106;28;20021;-62
2023/06/29 07:21:43;;;;;;;8.23;7.65;;;1280.00;870.40;;;;;;5048854;28;20032;-62
2023/06/29 07:24:10;;;;;;;7.75;7.25;;;1280.00;844.80;;;;;;5048162;28;20104;-62
2023/06/29 07:26:36;;;;;;;7.68;7.20;;;1280.40;819.20;;;;;;5047423;28;20130;-63
2023/06/29 07:29:04;;;;;;;8.30;7.80;;;1254.80;844.80;;;;;;5042313;28;20095;-62
2023/06/29 07:31:30;;;;;;;8.85;8.10;;;1255.10;844.80;;;;;;5042825;28;20033;-62
2023/06/29 07:33:56;;;;;;;10.15;8.23;;;1305.60;819.20;;;;;;5049180;28;20535;-63
2023/06/29 07:36:24;;;;;;;8.73;8.00;;;1280.40;844.80;;;;;;5049095;28;20037;-66
2023/06/29 07:38:50;;;;;;;8.30;7.80;;;1280.90;819.20;;;;;;5049209;28;20126;-61
2023/06/29 07:41:17;;;;;;;8.82;8.18;;;1203.90;870.40;;;;;;5049084;28;20052;-61
2023/06/29 07:43:47;;;;;;;8.65;7.95;;;1280.40;844.80;;;;;;5049214;28;20029;-62
2023/06/29 07:46:14;;;;;;;9.00;8.30;;;1280.50;844.80;;;;;;5049229;28;20383;-61
2023/06/29 07:48:39;;;;;;;4.85;4.45;;;1254.60;870.40;;;;;;5049556;28;20056;-61
2023/06/29 07:51:05;;;;;;;5.25;4.28;;;1152.40;921.60;;;;;;5049365;28;20122;-61
2023/06/29 07:53:31;;;;;;;5.63;4.43;;;1075.20;998.40;;;;;;5049296;28;20417;-61
2023/06/29 07:55:59;;;;;;;7.07;6.47;;;999.00;1100.80;;;;;;5042610;28;20558;-63
2023/06/29 07:58:26;;;;;;;6.00;5.50;;;1101.60;972.80;;;;;;5043247;28;20079;-61
2023/06/29 08:00:51;;;;;;;7.20;6.70;;;1152.90;896.00;;;;;;5049475;28;20021;-61
2023/06/29 08:03:17;;;;;;;6.20;5.65;;;1203.40;870.40;;;;;;5049445;28;20108;-61
2023/06/29 08:05:43;;;;;;;7.72;7.13;;;1178.20;896.00;;;;;;5049313;28;20021;-62
2023/06/29 08:08:09;;;;;;;6.35;4.78;;;1178.20;870.40;;;;;;5048988;28;20644;-61
2023/06/29 08:10:34;;;;;;;4.18;3.85;;;1152.70;921.60;;;;;;5035604;28;20029;-61
2023/06/29 08:13:01;;;;;;;5.75;3.53;;;1049.90;998.40;;;;;;5049361;28;20098;-61
2023/06/29 08:15:26;;;;;;;7.88;4.38;;;973.70;1024.00;;;;;;5049040;28;20025;-61
2023/06/29 08:17:52;;;;;;;4.35;3.95;;;947.30;1075.20;;;;;;5049304;28;20545;-61
2023/06/29 08:20:18;;;;;;;4.45;3.47;;;896.40;1126.40;;;;;;5048852;28;20009;-61
2023/06/29 08:22:45;;;;;;;6.38;4.20;;;870.50;1203.20;;;;;;5048477;28;20455;-60
2023/06/29 08:25:11;;;;;;;4.05;3.55;;;845.20;1254.40;;;;;;5048636;28;20417;-61
2023/06/29 08:27:36;;;;;;;4.55;3.30;;;845.40;1305.60;;;;;;5048501;28;20116;-60
2023/06/29 08:30:02;;;;;;;3.45;3.15;;;844.90;1280.00;;;;;;5048610;28;20025;-61
2023/06/29 08:32:28;;;;;;;3.92;3.50;;;844.80;1280.00;;;;;;5048948;28;20029;-61
2023/06/29 08:34:54;;;;;;;5.75;3.40;;;820.00;1203.20;;;;;;5048776;28;20488;-61
2023/06/29 08:37:20;;;;;;;3.97;3.25;;;819.90;1305.60;;;;;;5048508;28;20045;-60
2023/06/29 08:39:45;;;;;;;5.35;3.13;;;819.80;1254.40;;;;;;5048552;28;20041;-60
2023/06/29 08:42:12;;;;;;;4.13;3.45;;;819.20;1305.60;;;;;;5035633;28;20053;-61
2023/06/29 08:44:38;;;;;;;4.80;3.90;;;794.50;1331.20;;;;;;5022480;28;20480;-61
2023/06/29 08:47:05;;;;;;;5.07;3.15;;;819.60;1305.60;;;;;;5048823;28;20092;-61
2023/06/29 08:49:35;;;;;;;4.43;3.80;;;819.30;1254.40;;;;;;5049138;28;20104;-60
2023/06/29 08:52:03;;;;;;;4.35;3.17;;;819.40;1254.40;;;;;;5048576;28;20071;-60
2023/06/29 08:54:34;;;;;;;3.67;3.33;;;794.20;1305.60;;;;;;5048598;28;20023;-61
2023/06/29 08:57:02;;;;;;;5.55;3.40;;;794.40;1280.00;;;;;;5048488;28;20091;-61
2023/06/29 08:59:28;;;;;;;4.43;3.38;;;794.20;1331.20;;;;;;5048723;28;20021;-61
2023/06/29 09:01:58;;;;;;;5.35;3.40;;;794.20;1356.80;;;;;;5047945;28;20041;-67
2023/06/29 09:04:27;;;;;;;3.75;3.28;;;794.00;1382.40;;;;;;5048129;28;20036;-61
2023/06/29 09:06:56;;;;;;;5.90;3.58;;;768.90;1356.80;;;;;;5048103;28;20029;-60
2023/06/29 09:09:22;;;;;;;4.03;3.63;;;768.50;1356.80;;;;;;5048651;28;20242;-67
2023/06/29 09:11:49;;;;;;;6.55;3.55;;;768.10;1356.80;;;;;;5048842;28;20090;-63
2023/06/29 09:14:14;;;;;;;5.15;3.45;;;768.60;1356.80;;;;;;5039246;28;20072;-62
2023/06/29 09:16:56;;;;;;;3.90;3.42;;;768.90;1382.40;;;;;;5043640;28;20498;-65
2023/06/29 09:19:24;;;;;;;4.53;3.90;;;793.90;1356.80;;;;;;5047234;28;20032;-61
2023/06/29 09:21:50;;;;;;;4.72;3.30;;;794.30;1382.40;;;;;;5040458;28;20033;-61
2023/06/29 09:24:20;;;;;;;4.43;3.80;;;794.20;1356.80;;;;;;5048113;28;20055;-64
2023/06/29 09:26:52;;;;;;;6.40;3.72;;;794.00;1382.40;;;;;;5048146;28;20056;-60
2023/06/29 09:29:18;;;;;;;6.88;4.18;;;794.00;1382.40;;;;;;5043973;28;20052;-61
2023/06/29 09:31:57;;;;;;;6.82;3.72;;;793.70;1382.40;;;;;;5019599;28;20029;-61
2023/06/29 09:34:26;;;;;;;4.85;3.28;;;793.70;1331.20;;;;;;5041504;28;20025;-61
2023/06/29 09:36:53;;;;;;;6.65;3.72;;;793.70;1305.60;;;;;;5051580;28;20049;-61
2023/06/29 09:39:19;;;;;;;6.85;3.80;;;793.70;1382.40;;;;;;5051905;28;20029;-61
2023/06/29 09:41:50;;;;;;;7.45;4.15;;;768.90;1331.20;;;;;;5051823;28;20078;-60
2023/06/29 09:44:19;;;;;;;7.53;3.60;;;768.40;1382.40;;;;;;5051288;28;20025;-61
2023/06/29 09:46:46;;;;;;;5.78;3.47;;;768.20;1382.40;;;;;;5051617;28;20029;-60
2023/06/29 09:49:13;;;;;;;3.55;3.13;;;768.00;1408.00;;;;;;5051742;28;20032;-60
2023/06/29 09:51:38;;;;;;;7.70;3.67;;;768.10;1433.60;;;;;;5052049;28;20028;-61
2023/06/29 09:54:04;;;;;;;4.18;3.38;;;768.10;1408.00;;;;;;5051234;28;20021;-61
2023/06/29 09:56:33;;;;;;;3.63;3.20;;;743.30;1433.60;;;;;;5044220;28;20064;-61
2023/06/29 09:59:01;;;;;;;5.35;3.28;;;768.10;1433.60;;;;;;5033068;28;20079;-60
2023/06/29 10:01:29;;;;;;;4.95;3.25;;;743.10;1459.20;;;;;;5051756;28;20479;-61
2023/06/29 10:03:56;;;;;;;3.78;3.20;;;742.80;1459.20;;;;;;5046232;28;20453;-60
2023/06/29 10:06:38;;;;;;;3.67;3.22;;;743.00;1433.60;;;;;;5043589;28;20482;-61
2023/06/29 10:09:04;;;;;;;4.97;3.60;;;743.00;1408.00;;;;;;5051381;28;20045;-60
2023/06/29 10:11:34;;;;;;;5.55;3.35;;;743.00;1382.40;;;;;;5051145;28;20474;-61
2023/06/29 10:14:03;;;;;;;4.38;3.60;;;742.80;1408.00;;;;;;5051349;28;20462;-61
2023/06/29 10:16:36;;;;;;;4.28;3.10;;;742.70;1459.20;;;;;;5048636;28;20025;-61
2023/06/29 10:19:22;;;;;;;4.63;3.03;;;742.80;1459.20;;;;;;5041228;28;20086;-61
2023/06/29 10:21:53;;;;;;;4.43;3.50;;;743.10;1433.60;;;;;;5051365;28;20116;-60
2023/06/29 10:24:23;;;;;;;4.30;3.33;;;743.30;1408.00;;;;;;5050982;28;20458;-61
2023/06/29 10:26:50;;;;;;;7.20;3.90;;;768.00;1459.20;;;;;;5050929;28;20352;-61
2023/06/29 10:29:16;;;;;;;3.50;2.88;;;743.00;1459.20;;;;;;5050778;28;20025;-61
2023/06/29 10:31:48;;;;;;;3.90;3.20;;;743.10;1433.60;;;;;;5050975;28;20056;-61
2023/06/29 10:34:14;;;;;;;4.47;3.30;;;742.90;1408.00;;;;;;5050400;28;20474;-61
2023/06/29 10:36:45;;;;;;;5.13;3.70;;;742.80;1408.00;;;;;;5050644;28;20033;-61
2023/06/29 10:39:42;;;;;;;4.70;3.67;;;742.70;1433.60;;;;;;5050282;28;20107;-61
2023/06/29 10:42:22;;;;;;;4.57;3.40;;;742.70;1433.60;;;;;;5050488;28;20399;-61
2023/06/29 10:44:48;;;;;;;3.90;3.35;;;742.50;1433.60;;;;;;5050828;28;20029;-61
2023/06/29 10:47:45;;;;;;;3.88;2.88;;;717.60;1433.60;;;;;;5047409;28;20071;-61
2023/06/29 10:50:10;;;;;;;4.05;3.30;;;717.60;1433.60;;;;;;5041323;28;20029;-60
2023/06/29 10:52:42;;;;;;;5.93;3.33;;;717.30;1433.60;;;;;;5047592;28;20021;-61
2023/06/29 10:55:25;;;;;;;5.82;3.50;;;692.10;1408.00;;;;;;5047568;28;20033;-61
2023/06/29 10:57:53;;;;;;;4.35;3.10;;;692.10;1459.20;;;;;;5048302;28;20051;-60
2023/06/29 11:00:19;;;;;;;4.43;3.35;;;716.90;1510.40;;;;;;5047501;28;20127;-61
2023/06/29 11:02:47;;;;;;;6.70;3.50;;;691.70;1459.20;;;;;;5047969;28;20090;-63
2023/06/29 11:05:14;;;;;;;5.20;3.03;;;691.70;1459.20;;;;;;5047948;28;20029;-66
2023/06/29 11:07:41;;;;;;;3.55;3.20;;;692.00;1484.80;;;;;;5047468;28;20102;-61
2023/06/29 11:10:07;;;;;;;5.90;3.90;;;691.70;1484.80;;;;;;5047164;28;20038;-61
2023/06/29 11:12:35;;;;;;;5.90;3.10;;;691.90;1484.80;;;;;;5047528;28;20025;-61
2023/06/29 11:15:01;;;;;;;5.20;2.92;;;691.90;1510.40;;;;;;5047409;28;20056;-61
2023/06/29 11:17:27;;;;;;;4.80;3.08;;;691.60;1484.80;;;;;;5047392;28;20060;-61
2023/06/29 11:19:52;;;;;;;3.67;3.05;;;691.40;1561.60;;;;;;5047750;28;20029;-60
2023/06/29 11:22:19;;;;;;;5.13;2.95;;;691.20;1536.00;;;;;;5047666;28;20116;-61
2023/06/29 11:24:45;;;;;;;3.83;2.65;;;691.30;1536.00;;;;;;5046959;28;20017;-61
2023/06/29 11:27:11;;;;;;;5.82;3.45;;;691.70;1536.00;;;;;;5049392;28;20037;-66
2023/06/29 11:29:38;;;;;;;5.05;3.40;;;691.80;1484.80;;;;;;5049882;28;20017;-61
2023/06/29 11:32:15;;;;;;;5.53;3.08;;;692.10;1484.80;;;;;;5049701;28;20039;-61
2023/06/29 11:34:41;;;;;;;3.50;3.05;;;716.80;1510.40;;;;;;5050117;28;20175;-61
2023/06/29 11:37:09;;;;;;;3.65;3.05;;;716.90;1484.80;;;;;;5049573;28;20144;-62
2023/06/29 11:39:35;;;;;;;4.57;3.08;;;717.20;1484.80;;;;;;5049128;28;20112;-61
2023/06/29 11:42:03;;;;;;;4.85;3.45;;;717.00;1433.60;;;;;;5049663;28;20107;-61
2023/06/29 11:44:29;;;;;;;7.30;3.85;;;716.80;1510.40;;;;;;5049358;28;20021;-61
2023/06/29 11:46:58;;;;;;;5.13;3.38;;;716.90;1510.40;;;;;;5049155;28;20449;-61
2023/06/29 11:49:24;;;;;;;5.03;3.38;;;716.90;1510.40;;;;;;5049052;28;20032;-61
2023/06/29 11:51:50;;;;;;;5.30;3.83;;;717.00;1510.40;;;;;;5049889;28;20017;-61
2023/06/29 11:54:17;;;;;;;4.25;3.22;;;717.10;1459.20;;;;;;5049078;28;20029;-61
2023/06/29 11:56:43;;;;;;;4.75;3.47;;;717.10;1510.40;;;;;;5048869;28;20025;-61
2023/06/29 11:59:15;;;;;;;4.22;3.60;;;716.90;1536.00;;;;;;5048935;28;20367;-61
2023/06/29 12:01:42;;;;;;;4.97;3.67;;;716.90;1510.40;;;;;;5049219;28;20028;-61
2023/06/29 12:04:08;;;;;;;5.18;3.70;;;717.10;1459.20;;;;;;5049559;28;20032;-61
2023/06/29 12:06:48;;;;;;;6.22;3.42;;;691.70;1459.20;;;;;;5049074;28;20029;-61
2023/06/29 12:09:14;;;;;;;5.75;4.13;;;691.80;1459.20;;;;;;5049482;28;20055;-61
2023/06/29 12:11:39;;;;;;;4.53;3.13;;;691.80;1484.80;;;;;;5048862;28;20531;-61
2023/06/29 12:14:09;;;;;;;4.25;3.10;;;691.70;1433.60;;;;;;5048304;28;20105;-61
2023/06/29 12:16:41;;;;;;;18.63;7.32;;;691.80;1433.60;;;;;;5048466;28;20036;-61